Terminal Aerodrome Forecast
Issued by NWS Upton, NY

Home | Current Version | Previous Version | Text Only | Print | Product List | Glossary On
Versions: 1 2 3 4 5 6 7 8 9 10 11 12 13 14 15 16 17 18 19 20 21 22 23 24 25 26 27 28 29 30 31
000
FTUS41 KOKX 041400 AAA
TAFBDR
TAF AMD
KBDR 041433Z 0415/0512 26007KT 4SM -RA BR SCT020 OVC090
      TEMPO 0415/0419 BKN020
     FM041900 24010KT 5SM -RA BR BKN025 BKN050
     FM050200 27005KT 4SM -RA BR OVC015
     FM050600 33005KT 2SM -SN BR OVC015
     FM051000 34010G16KT 3SM -SN BR SCT020 OVC035=

USA.gov is the U.S. government's official web portal to all federal, state and local government web resources and services.